createdAt,value
2019-05-12T00:00:21.586Z,4.60
2019-05-12T00:02:50.129Z,4.43
2019-05-12T00:05:18.904Z,4.13
2019-05-12T00:07:48.665Z,4.03
2019-05-12T00:10:19.709Z,5.03
2019-05-12T00:12:48.670Z,3.73
2019-05-12T00:15:19.298Z,4.23
2019-05-12T00:17:48.491Z,4.10
2019-05-12T00:20:18.175Z,4.27
2019-05-12T00:22:51.494Z,4.50
2019-05-12T00:25:20.151Z,4.20
2019-05-12T00:27:49.004Z,4.83
2019-05-12T00:30:38.893Z,4.67
2019-05-12T00:33:09.429Z,4.47
2019-05-12T00:35:38.397Z,4.20
2019-05-12T00:38:09.035Z,4.73
2019-05-12T00:40:39.338Z,4.43
2019-05-12T00:43:09.135Z,4.73
2019-05-12T00:45:38.957Z,4.73
2019-05-12T00:48:09.170Z,4.90
2019-05-12T00:50:38.621Z,4.60
2019-05-12T00:53:09.188Z,4.63
2019-05-12T00:55:38.225Z,4.50
2019-05-12T00:58:08.282Z,4.70
2019-05-12T01:00:40.688Z,4.50
2019-05-12T01:03:08.731Z,4.70
2019-05-12T01:05:38.276Z,4.80
2019-05-12T01:08:08.857Z,5.10
2019-05-12T01:10:38.968Z,4.03
2019-05-12T01:13:08.740Z,4.90
2019-05-12T01:15:38.023Z,4.50
2019-05-12T01:18:09.231Z,5.13
2019-05-12T01:20:39.014Z,4.80
2019-05-12T01:23:08.691Z,4.33
2019-05-12T01:25:39.423Z,4.60
2019-05-12T01:28:08.429Z,4.23
2019-05-12T01:30:38.994Z,4.50
2019-05-12T01:33:08.513Z,3.97
2019-05-12T01:35:38.800Z,4.80
2019-05-12T01:38:08.235Z,4.60
2019-05-12T01:40:39.420Z,4.43
2019-05-12T01:43:08.515Z,4.43
2019-05-12T01:45:38.094Z,4.70
2019-05-12T01:48:08.835Z,4.23
2019-05-12T01:50:38.664Z,4.73
2019-05-12T01:53:08.394Z,4.80
2019-05-12T01:55:38.632Z,4.90
2019-05-12T01:58:08.503Z,4.30
2019-05-12T02:00:38.693Z,4.90
2019-05-12T02:03:09.128Z,4.30
2019-05-12T02:05:39.798Z,4.73
2019-05-12T02:08:10.055Z,5.20
2019-05-12T02:10:39.061Z,4.97
2019-05-12T02:13:08.134Z,4.40
2019-05-12T02:15:39.808Z,4.50
2019-05-12T02:18:09.041Z,5.30
2019-05-12T02:20:38.379Z,4.97
2019-05-12T02:23:09.074Z,4.97
2019-05-12T02:25:38.215Z,5.00
2019-05-12T02:28:09.322Z,4.73
2019-05-12T02:30:41.213Z,4.60
2019-05-12T02:33:07.749Z,4.53
2019-05-12T02:35:36.316Z,4.70
2019-05-12T02:38:05.522Z,4.70
2019-05-12T02:40:35.041Z,4.90
2019-05-12T02:43:15.460Z,4.30
2019-05-12T02:45:44.740Z,4.43
2019-05-12T02:48:14.383Z,4.47
2019-05-12T02:50:45.234Z,4.87
2019-05-12T02:53:14.579Z,4.80
2019-05-12T02:55:45.006Z,4.67
2019-05-12T02:58:16.014Z,4.20
2019-05-12T03:00:46.014Z,4.10
2019-05-12T03:03:16.178Z,4.80
2019-05-12T03:05:46.575Z,4.47
2019-05-12T03:08:16.050Z,4.33
2019-05-12T03:10:47.933Z,4.77
2019-05-12T03:13:16.568Z,4.40
2019-05-12T03:15:45.125Z,4.67
2019-05-12T03:18:14.644Z,4.60
2019-05-12T03:20:45.505Z,4.90
2019-05-12T03:23:18.497Z,4.33
2019-05-12T03:25:45.590Z,4.60
2019-05-12T03:28:15.859Z,5.47
2019-05-12T03:30:48.246Z,4.70
2019-05-12T03:33:19.248Z,4.87
2019-05-12T03:35:52.310Z,5.20
2019-05-12T03:38:15.919Z,4.97
2019-05-12T03:40:45.260Z,4.63
2019-05-12T03:43:14.746Z,4.30
2019-05-12T03:45:45.293Z,4.80
2019-05-12T03:48:15.040Z,4.93
2019-05-12T03:50:46.191Z,4.87
2019-05-12T03:53:15.699Z,5.47
2019-05-12T03:55:47.053Z,5.63
2019-05-12T03:58:15.455Z,4.83
2019-05-12T04:00:44.875Z,5.20
2019-05-12T04:03:15.265Z,5.43
2019-05-12T04:05:45.169Z,5.80
2019-05-12T04:08:15.819Z,4.83
2019-05-12T04:10:45.430Z,5.87
2019-05-12T04:13:15.285Z,5.30
2019-05-12T04:15:45.368Z,5.67
2019-05-12T04:18:15.896Z,5.40
2019-05-12T04:20:46.090Z,5.70
2019-05-12T04:23:15.530Z,5.53
2019-05-12T04:25:52.223Z,5.10
2019-05-12T04:28:15.308Z,5.27
2019-05-12T04:30:44.539Z,5.27
2019-05-12T04:33:15.468Z,5.40
2019-05-12T04:35:45.272Z,5.13
2019-05-12T04:38:15.016Z,5.70
2019-05-12T04:40:45.219Z,5.70
2019-05-12T04:43:14.791Z,5.43
2019-05-12T04:45:45.153Z,5.03
2019-05-12T04:48:15.524Z,4.70
2019-05-12T04:50:45.260Z,5.13
2019-05-12T04:53:14.569Z,5.33
2019-05-12T04:55:44.520Z,5.63
2019-05-12T04:58:15.557Z,5.23
2019-05-12T05:00:44.795Z,5.63
2019-05-12T05:03:14.294Z,5.80
2019-05-12T05:05:44.378Z,5.93
2019-05-12T05:08:14.503Z,5.33
2019-05-12T05:10:45.129Z,6.30
2019-05-12T05:13:14.915Z,5.57
2019-05-12T05:15:44.649Z,5.57
2019-05-12T05:18:13.522Z,5.50
2019-05-12T05:20:43.814Z,5.17
2019-05-12T05:23:14.221Z,5.53
2019-05-12T05:25:43.471Z,6.40
2019-05-12T05:28:14.317Z,6.13
2019-05-12T05:30:44.066Z,5.70
2019-05-12T05:33:14.466Z,5.50
2019-05-12T05:35:43.549Z,5.53
2019-05-12T05:38:19.149Z,5.30
2019-05-12T05:40:43.568Z,5.67
2019-05-12T05:43:17.753Z,5.37
2019-05-12T05:45:43.826Z,5.30
2019-05-12T05:48:13.559Z,4.73
2019-05-12T05:50:43.829Z,5.23
2019-05-12T05:53:15.479Z,5.07
2019-05-12T05:55:44.209Z,4.23
2019-05-12T05:58:15.241Z,4.87
2019-05-12T18:46:19.289Z,0.93
2019-05-12T18:48:47.916Z,1.20
2019-05-12T18:51:20.262Z,1.03
2019-05-12T18:53:49.038Z,1.23
2019-05-12T18:56:21.733Z,1.40
2019-05-12T18:58:48.084Z,1.00
2019-05-12T19:01:16.818Z,1.20
2019-05-12T19:03:50.703Z,1.70
2019-05-12T19:06:15.630Z,1.30
2019-05-12T19:08:44.395Z,1.20
2019-05-12T19:11:22.462Z,1.40
2019-05-12T19:13:51.823Z,1.30
2019-05-12T19:16:16.992Z,1.50
2019-05-12T19:18:55.473Z,1.63
2019-05-12T19:21:46.435Z,1.33
2019-05-12T19:24:15.230Z,1.30
2019-05-12T19:26:54.131Z,1.23
2019-05-12T19:38:15.617Z,1.47
2019-05-12T19:43:49.634Z,1.47
2019-05-12T19:46:18.330Z,1.50
2019-05-12T19:54:57.282Z,1.30
2019-05-12T19:57:36.980Z,1.10
2019-05-12T20:02:59.254Z,1.53
2019-05-12T20:05:36.166Z,1.47
2019-05-12T20:08:08.228Z,1.03
2019-05-12T20:16:34.832Z,1.80
2019-05-12T20:19:04.292Z,1.57
2019-05-12T20:21:34.021Z,1.67
2019-05-12T20:24:03.708Z,1.70
2019-05-12T20:33:25.916Z,1.50
2019-05-12T20:39:04.088Z,1.60
2019-05-12T20:41:33.891Z,1.50
2019-05-12T20:47:19.087Z,1.70
2019-05-12T20:49:50.925Z,1.80
2019-05-12T20:52:18.139Z,1.93
2019-05-12T20:54:49.167Z,2.07
2019-05-12T21:10:36.717Z,2.20
2019-05-12T21:13:05.373Z,2.40
2019-05-12T21:30:09.914Z,2.30
2019-05-12T21:35:40.638Z,2.10
2019-05-12T21:38:06.483Z,2.60
2019-05-12T21:40:35.244Z,2.07
2019-05-12T21:43:04.260Z,2.20
2019-05-12T21:45:33.966Z,3.03
2019-05-12T21:54:04.020Z,2.47
2019-05-12T21:56:35.782Z,2.50
2019-05-12T21:59:03.726Z,2.43
2019-05-12T22:07:45.294Z,2.50
2019-05-12T22:10:15.603Z,2.60
2019-05-12T22:12:44.549Z,2.73
2019-05-12T22:15:21.447Z,2.70
2019-05-12T22:21:01.319Z,3.00
2019-05-12T22:23:25.477Z,2.70
2019-05-12T22:25:58.024Z,3.03
2019-05-12T22:28:24.686Z,3.33
2019-05-12T22:30:54.141Z,2.90
2019-05-12T22:36:55.454Z,3.13
2019-05-12T22:39:22.066Z,2.63
2019-05-12T22:41:50.785Z,2.83
2019-05-12T22:44:22.195Z,3.00
2019-05-12T22:53:36.097Z,3.00
2019-05-12T22:56:12.372Z,2.90
2019-05-12T22:58:35.117Z,3.40
2019-05-12T23:01:05.316Z,2.90
2019-05-12T23:03:34.237Z,3.20
2019-05-12T23:09:27.934Z,3.13
2019-05-12T23:11:50.373Z,3.50
2019-05-12T23:14:22.407Z,3.40
2019-05-12T23:16:49.579Z,3.40
2019-05-12T23:19:18.563Z,3.50
2019-05-12T23:21:49.431Z,3.70
2019-05-12T23:24:17.301Z,3.60
2019-05-12T23:26:47.960Z,3.70
2019-05-12T23:29:20.467Z,3.80
2019-05-12T23:31:46.869Z,3.80
2019-05-12T23:34:15.664Z,3.93
2019-05-12T23:40:16.523Z,3.70
2019-05-12T23:42:44.625Z,3.80
2019-05-12T23:45:13.913Z,4.30
2019-05-12T23:47:43.994Z,3.80
2019-05-12T23:53:17.645Z,4.40
2019-05-12T23:55:46.618Z,4.70
2019-05-12T23:58:15.178Z,4.30
